Time;durP1;ratioP1;P1;durP2;ratioP2;P2;SDS_P1;SDS_P2;PMS_P1;PMS_P2;Temp;Humidity;BMP_temperature;BMP_pressure;BME280_temperature;BME280_humidity;BME280_pressure;Samples;Min_cycle;Max_cycle;Signal;HPM_P1;HPM_P2
2023/01/21 00:00:04;;;;;;;49.33;21.08;;;;;;;;;;5068102;28;20056;-70
2023/01/21 00:02:30;;;;;;;46.42;21.02;;;;;;;;;;5069191;28;20053;-69
2023/01/21 00:04:57;;;;;;;48.70;21.05;;;;;;;;;;5068758;28;20071;-70
2023/01/21 00:07:24;;;;;;;43.42;20.30;;;;;;;;;;5070015;28;20111;-68
2023/01/21 00:09:51;;;;;;;44.60;21.48;;;;;;;;;;5068105;28;20049;-69
2023/01/21 00:12:17;;;;;;;47.00;21.75;;;;;;;;;;5068312;28;20057;-68
2023/01/21 00:14:43;;;;;;;51.72;21.75;;;;;;;;;;5069500;28;20056;-69
2023/01/21 00:17:10;;;;;;;42.83;19.88;;;;;;;;;;5069488;28;20045;-69
2023/01/21 00:19:36;;;;;;;44.00;20.00;;;;;;;;;;5069049;28;20103;-71
2023/01/21 00:22:03;;;;;;;40.10;19.55;;;;;;;;;;5067320;28;20056;-69
2023/01/21 00:24:29;;;;;;;40.00;18.80;;;;;;;;;;5068362;28;20509;-68
2023/01/21 00:26:55;;;;;;;38.92;19.25;;;;;;;;;;5068151;28;20049;-69
2023/01/21 00:29:22;;;;;;;39.75;19.67;;;;;;;;;;5068067;28;20045;-69
2023/01/21 00:31:48;;;;;;;31.45;18.35;;;;;;;;;;5067928;28;20053;-69
2023/01/21 00:34:14;;;;;;;41.28;18.08;;;;;;;;;;5068351;28;20085;-69
2023/01/21 00:36:41;;;;;;;41.05;19.48;;;;;;;;;;5069501;28;20143;-69
2023/01/21 00:39:07;;;;;;;36.13;17.85;;;;;;;;;;5068245;28;20057;-69
2023/01/21 00:41:33;;;;;;;34.03;18.10;;;;;;;;;;5066706;28;20092;-69
2023/01/21 00:44:00;;;;;;;35.05;17.23;;;;;;;;;;5053983;28;20059;-69
2023/01/21 00:46:26;;;;;;;41.03;18.42;;;;;;;;;;5064635;28;20049;-69
2023/01/21 00:48:54;;;;;;;34.88;17.17;;;;;;;;;;5068490;28;20111;-69
2023/01/21 00:51:21;;;;;;;36.45;18.13;;;;;;;;;;5066179;28;20531;-69
2023/01/21 00:53:47;;;;;;;37.97;17.85;;;;;;;;;;5068124;28;20132;-69
2023/01/21 00:56:14;;;;;;;34.72;18.17;;;;;;;;;;5067812;28;20056;-68
2023/01/21 00:58:42;;;;;;;35.40;17.27;;;;;;;;;;5068303;28;20111;-67
2023/01/21 01:01:13;;;;;;;35.88;16.98;;;;;;;;;;5066999;28;20582;-69
2023/01/21 01:03:40;;;;;;;31.67;16.10;;;;;;;;;;5068256;28;20079;-67
2023/01/21 01:06:08;;;;;;;40.05;17.55;;;;;;;;;;5067333;28;20052;-69
2023/01/21 01:08:34;;;;;;;35.35;17.02;;;;;;;;;;5068171;28;20053;-69
2023/01/21 01:11:01;;;;;;;35.03;17.92;;;;;;;;;;5067453;28;20605;-69
2023/01/21 01:13:27;;;;;;;35.83;16.83;;;;;;;;;;5067950;28;20084;-68
2023/01/21 01:15:56;;;;;;;30.45;16.17;;;;;;;;;;5068507;28;20049;-70
2023/01/21 01:18:23;;;;;;;32.00;17.02;;;;;;;;;;5067293;28;20081;-69
2023/01/21 01:20:49;;;;;;;36.22;17.83;;;;;;;;;;5066436;28;20052;-70
2023/01/21 01:23:15;;;;;;;39.60;17.88;;;;;;;;;;5068672;28;20053;-69
2023/01/21 01:25:42;;;;;;;33.67;15.63;;;;;;;;;;5065610;28;20050;-69
2023/01/21 01:28:09;;;;;;;32.47;16.25;;;;;;;;;;5067727;28;20055;-70
2023/01/21 01:30:35;;;;;;;34.95;16.75;;;;;;;;;;5066207;28;20056;-70
2023/01/21 01:33:01;;;;;;;40.05;19.67;;;;;;;;;;5067085;28;20183;-70
2023/01/21 01:35:28;;;;;;;34.50;16.00;;;;;;;;;;5068012;28;20490;-69
2023/01/21 01:37:54;;;;;;;28.45;15.55;;;;;;;;;;5067988;28;20452;-69
2023/01/21 01:40:20;;;;;;;35.38;16.63;;;;;;;;;;5065287;28;20064;-69
2023/01/21 01:42:47;;;;;;;36.85;17.70;;;;;;;;;;5066875;28;20061;-68
2023/01/21 01:45:13;;;;;;;36.38;17.60;;;;;;;;;;5065785;28;20048;-69
2023/01/21 01:47:42;;;;;;;34.13;16.92;;;;;;;;;;5067333;28;20059;-69
2023/01/21 01:50:11;;;;;;;37.15;16.77;;;;;;;;;;5066580;28;20059;-71
2023/01/21 01:52:38;;;;;;;37.42;16.90;;;;;;;;;;5065560;28;20060;-71
2023/01/21 01:55:05;;;;;;;33.90;17.25;;;;;;;;;;5066674;28;20103;-69
2023/01/21 01:57:35;;;;;;;31.95;16.52;;;;;;;;;;5066308;28;20140;-68
2023/01/21 02:00:04;;;;;;;34.83;18.10;;;;;;;;;;5067145;28;20426;-69
2023/01/21 02:02:30;;;;;;;39.25;17.60;;;;;;;;;;5064566;28;20049;-69
2023/01/21 02:05:00;;;;;;;33.80;17.33;;;;;;;;;;5067741;28;20451;-68
2023/01/21 02:07:28;;;;;;;34.60;17.65;;;;;;;;;;5066987;28;20671;-68
2023/01/21 02:09:55;;;;;;;34.92;17.10;;;;;;;;;;5066676;28;20055;-69
2023/01/21 02:12:21;;;;;;;37.58;17.73;;;;;;;;;;5064820;28;20057;-69
2023/01/21 02:14:48;;;;;;;35.55;16.38;;;;;;;;;;5065788;28;20526;-69
2023/01/21 02:17:16;;;;;;;32.95;16.23;;;;;;;;;;5066195;28;20053;-69
2023/01/21 02:20:02;;;;;;;36.70;17.15;;;;;;;;;;5065732;28;20144;-69
2023/01/21 02:22:32;;;;;;;30.58;16.10;;;;;;;;;;5054912;28;20060;-69
2023/01/21 02:25:08;;;;;;;33.42;16.55;;;;;;;;;;5066052;28;20545;-69
2023/01/21 02:27:47;;;;;;;33.60;16.67;;;;;;;;;;5065344;28;20052;-69
2023/01/21 02:30:32;;;;;;;38.35;17.08;;;;;;;;;;5067297;28;20053;-69
2023/01/21 02:33:17;;;;;;;36.88;17.17;;;;;;;;;;5064667;28;20049;-69
2023/01/21 02:35:54;;;;;;;37.83;16.83;;;;;;;;;;5067045;28;20053;-69
2023/01/21 02:38:21;;;;;;;35.58;17.75;;;;;;;;;;5066028;28;20056;-70
2023/01/21 02:41:02;;;;;;;32.22;15.80;;;;;;;;;;5065586;28;20056;-68
2023/01/21 02:43:47;;;;;;;29.65;14.40;;;;;;;;;;5047971;28;20484;-70
2023/01/21 02:46:19;;;;;;;35.23;17.47;;;;;;;;;;5054608;28;20454;-70
2023/01/21 02:48:59;;;;;;;31.60;16.27;;;;;;;;;;5065512;28;20049;-70
2023/01/21 02:51:25;;;;;;;38.30;18.38;;;;;;;;;;5065617;28;20063;-69
2023/01/21 02:53:51;;;;;;;38.95;17.67;;;;;;;;;;5065880;28;20518;-69
2023/01/21 02:56:20;;;;;;;33.78;17.77;;;;;;;;;;5066296;28;20053;-69
2023/01/21 02:58:50;;;;;;;34.47;16.90;;;;;;;;;;5065635;28;20133;-69
2023/01/21 03:01:23;;;;;;;34.97;17.60;;;;;;;;;;5064617;28;20057;-70
2023/01/21 03:03:58;;;;;;;31.58;16.73;;;;;;;;;;5062662;28;20597;-69
2023/01/21 03:06:27;;;;;;;;;;;;;;;;;;5065363;28;20057;-69
2023/01/21 03:08:56;;;;;;;34.22;15.98;;;;;;;;;;5065570;28;46151;-69
2023/01/21 03:11:23;;;;;;;34.58;16.17;;;;;;;;;;5065822;28;20056;-69
2023/01/21 03:16:57;;;;;;;28.80;15.87;;;;;;;;;;5055528;28;20076;-70
2023/01/21 03:19:26;;;;;;;35.65;16.08;;;;;;;;;;5065147;28;20119;-69
2023/01/21 03:21:54;;;;;;;34.50;17.00;;;;;;;;;;5065534;28;20045;-70
2023/01/21 03:24:21;;;;;;;32.13;15.35;;;;;;;;;;5060712;28;20049;-70
2023/01/21 03:26:49;;;;;;;38.90;17.92;;;;;;;;;;5064718;28;20128;-70
2023/01/21 03:29:19;;;;;;;38.78;17.75;;;;;;;;;;5067167;28;20045;-67
2023/01/21 03:31:48;;;;;;;38.33;17.63;;;;;;;;;;5065679;28;20045;-67
2023/01/21 03:34:15;;;;;;;35.53;16.55;;;;;;;;;;5065481;28;20053;-69
2023/01/21 03:36:54;;;;;;;38.85;17.38;;;;;;;;;;5057208;28;20060;-69
2023/01/21 03:39:24;;;;;;;38.20;17.55;;;;;;;;;;5066181;28;20423;-70
2023/01/21 03:41:51;;;;;;;35.42;16.42;;;;;;;;;;5064507;28;20053;-68
2023/01/21 03:44:17;;;;;;;37.80;16.85;;;;;;;;;;5066970;28;20045;-69
2023/01/21 03:47:06;;;;;;;35.35;16.50;;;;;;;;;;5067034;28;20057;-68
2023/01/21 03:49:55;;;;;;;39.70;15.95;;;;;;;;;;5064800;28;20056;-69
2023/01/21 03:52:22;;;;;;;34.88;16.17;;;;;;;;;;5064695;28;20063;-69
2023/01/21 03:54:49;;;;;;;31.35;17.52;;;;;;;;;;5065128;28;20524;-69
2023/01/21 03:57:16;;;;;;;41.88;19.02;;;;;;;;;;5066468;28;20055;-70
2023/01/21 03:59:42;;;;;;;36.90;17.83;;;;;;;;;;5065845;28;20045;-68
2023/01/21 04:02:09;;;;;;;30.40;16.38;;;;;;;;;;5063288;28;20118;-70
2023/01/21 04:04:35;;;;;;;37.22;17.77;;;;;;;;;;5067761;28;20063;-69
2023/01/21 04:07:02;;;;;;;36.03;17.60;;;;;;;;;;5063795;28;20435;-69
2023/01/21 04:09:28;;;;;;;39.28;18.08;;;;;;;;;;5067699;28;20046;-68
2023/01/21 04:11:54;;;;;;;39.60;18.67;;;;;;;;;;5069202;28;20941;-70
2023/01/21 04:14:21;;;;;;;37.13;18.83;;;;;;;;;;5069384;28;20083;-69
2023/01/21 04:16:47;;;;;;;35.85;16.85;;;;;;;;;;5068385;28;20147;-70
2023/01/21 04:19:13;;;;;;;35.35;17.15;;;;;;;;;;5069094;28;20557;-69
2023/01/21 04:21:40;;;;;;;42.20;18.33;;;;;;;;;;5069054;28;20534;-69
2023/01/21 04:24:06;;;;;;;37.45;17.88;;;;;;;;;;5067474;28;20049;-70
2023/01/21 04:26:32;;;;;;;36.75;16.40;;;;;;;;;;5068709;28;20055;-69
2023/01/21 04:28:59;;;;;;;36.70;17.02;;;;;;;;;;5068570;28;20486;-67
2023/01/21 04:31:25;;;;;;;37.15;17.02;;;;;;;;;;5068382;28;20060;-69
2023/01/21 04:33:51;;;;;;;40.03;17.40;;;;;;;;;;5066114;28;20111;-70
2023/01/21 04:36:18;;;;;;;35.67;16.10;;;;;;;;;;5068143;28;20057;-69
2023/01/21 04:38:44;;;;;;;34.80;16.83;;;;;;;;;;5062772;28;20056;-69
2023/01/21 04:41:11;;;;;;;34.65;15.90;;;;;;;;;;5061241;28;20061;-69
2023/01/21 04:43:37;;;;;;;36.65;16.60;;;;;;;;;;5067796;28;20084;-66
2023/01/21 04:46:03;;;;;;;32.72;17.13;;;;;;;;;;5068628;28;20486;-69
2023/01/21 04:48:30;;;;;;;37.03;18.30;;;;;;;;;;5067511;28;20082;-69
2023/01/21 04:50:57;;;;;;;34.17;17.13;;;;;;;;;;5068319;28;20051;-68
2023/01/21 04:53:23;;;;;;;35.00;16.45;;;;;;;;;;5067780;28;20045;-68
2023/01/21 04:55:51;;;;;;;35.90;18.17;;;;;;;;;;5067541;28;20045;-69
2023/01/21 04:58:18;;;;;;;38.45;17.98;;;;;;;;;;5066056;28;20057;-70
2023/01/21 05:00:44;;;;;;;37.42;17.15;;;;;;;;;;5064119;28;20060;-67
2023/01/21 05:03:10;;;;;;;37.40;17.30;;;;;;;;;;5064455;28;20577;-67
2023/01/21 05:05:36;;;;;;;41.00;19.23;;;;;;;;;;5062521;28;20059;-70
2023/01/21 05:08:03;;;;;;;35.33;17.52;;;;;;;;;;5067343;28;20049;-69
2023/01/21 05:10:29;;;;;;;39.83;18.58;;;;;;;;;;5068859;28;20052;-69
2023/01/21 05:12:55;;;;;;;40.20;17.90;;;;;;;;;;5066328;28;20053;-69
2023/01/21 05:15:22;;;;;;;39.05;17.42;;;;;;;;;;5067086;28;20523;-70
2023/01/21 05:17:48;;;;;;;38.28;17.15;;;;;;;;;;5068014;28;20376;-70
2023/01/21 05:20:14;;;;;;;34.92;17.15;;;;;;;;;;5063838;28;20041;-69
2023/01/21 05:22:44;;;;;;;36.45;16.77;;;;;;;;;;5065572;28;20056;-70
2023/01/21 05:25:10;;;;;;;38.95;17.80;;;;;;;;;;5067293;28;20052;-68
2023/01/21 05:27:37;;;;;;;36.00;18.55;;;;;;;;;;5067921;28;20982;-69
2023/01/21 05:30:03;;;;;;;37.70;18.55;;;;;;;;;;5065525;28;21837;-68
2023/01/21 05:32:30;;;;;;;36.97;16.50;;;;;;;;;;5063194;28;20060;-68
2023/01/21 05:34:56;;;;;;;35.47;17.02;;;;;;;;;;5063899;28;20059;-69
2023/01/21 05:37:22;;;;;;;38.63;17.35;;;;;;;;;;5068295;28;20085;-68
2023/01/21 05:39:49;;;;;;;41.47;17.10;;;;;;;;;;5052739;28;20049;-68
2023/01/21 05:42:15;;;;;;;41.95;17.08;;;;;;;;;;5078633;28;20682;-69
2023/01/21 05:44:41;;;;;;;38.13;16.92;;;;;;;;;;5074598;28;20055;-68
2023/01/21 05:47:07;;;;;;;37.42;17.25;;;;;;;;;;5066772;28;20056;-71
2023/01/21 05:49:34;;;;;;;38.78;16.23;;;;;;;;;;5070190;28;20139;-69
2023/01/21 05:52:00;;;;;;;36.47;17.58;;;;;;;;;;5080792;28;20144;-68
2023/01/21 05:54:27;;;;;;;35.95;16.45;;;;;;;;;;5071693;28;20045;-69
2023/01/21 05:56:53;;;;;;;38.35;18.35;;;;;;;;;;5078138;28;20517;-69
2023/01/21 05:59:19;;;;;;;38.63;18.25;;;;;;;;;;5072548;28;20148;-67
2023/01/21 06:01:45;;;;;;;42.47;19.90;;;;;;;;;;5070243;28;20045;-69
2023/01/21 06:04:12;;;;;;;43.28;20.50;;;;;;;;;;5067762;28;20063;-69
2023/01/21 06:06:39;;;;;;;44.08;18.20;;;;;;;;;;5066905;28;20156;-68
2023/01/21 06:09:05;;;;;;;43.95;18.83;;;;;;;;;;5060924;28;20042;-68
2023/01/21 06:11:32;;;;;;;46.53;17.52;;;;;;;;;;5057097;28;20598;-69
2023/01/21 06:13:58;;;;;;;53.45;19.42;;;;;;;;;;5067896;28;20059;-69
2023/01/21 06:16:24;;;;;;;43.30;20.10;;;;;;;;;;5070986;28;20049;-69
2023/01/21 06:18:50;;;;;;;42.60;19.05;;;;;;;;;;5078692;28;20564;-70
2023/01/21 06:21:17;;;;;;;43.85;19.40;;;;;;;;;;5068079;28;20168;-68
2023/01/21 06:23:43;;;;;;;46.60;20.02;;;;;;;;;;5065736;28;20052;-69
2023/01/21 06:26:10;;;;;;;45.63;20.88;;;;;;;;;;5066581;28;20064;-69
2023/01/21 06:28:36;;;;;;;47.10;19.60;;;;;;;;;;5067212;28;20127;-69
2023/01/21 06:31:03;;;;;;;48.28;19.02;;;;;;;;;;5064615;28;20525;-70
2023/01/21 06:33:29;;;;;;;44.53;19.55;;;;;;;;;;5066537;28;20060;-70
2023/01/21 06:35:55;;;;;;;49.53;20.23;;;;;;;;;;5067730;28;20060;-69
2023/01/21 06:38:22;;;;;;;48.80;20.23;;;;;;;;;;5064014;28;20494;-70
2023/01/21 06:40:48;;;;;;;49.00;19.73;;;;;;;;;;5053804;28;20107;-70
2023/01/21 06:43:14;;;;;;;43.20;20.17;;;;;;;;;;5064229;28;20499;-68
2023/01/21 06:45:40;;;;;;;50.28;21.65;;;;;;;;;;5066502;28;20056;-69
2023/01/21 06:48:07;;;;;;;49.83;20.65;;;;;;;;;;5066049;28;20049;-69
2023/01/21 06:50:33;;;;;;;57.05;21.52;;;;;;;;;;5072716;28;20056;-68
2023/01/21 06:52:59;;;;;;;48.22;21.50;;;;;;;;;;5072741;28;20045;-69
2023/01/21 06:55:26;;;;;;;49.40;20.60;;;;;;;;;;5066387;28;20080;-70
2023/01/21 06:57:52;;;;;;;49.40;20.15;;;;;;;;;;5066311;28;20049;-70
2023/01/21 07:00:18;;;;;;;54.00;21.75;;;;;;;;;;5066446;28;20585;-70
2023/01/21 07:02:45;;;;;;;50.13;20.73;;;;;;;;;;5060564;28;20053;-69
2023/01/21 07:05:13;;;;;;;59.50;23.25;;;;;;;;;;5061987;28;20080;-68
2023/01/21 07:07:40;;;;;;;60.22;23.70;;;;;;;;;;5073215;28;20045;-67
2023/01/21 07:10:07;;;;;;;55.10;21.75;;;;;;;;;;5067064;28;20053;-68
2023/01/21 07:12:34;;;;;;;49.58;21.55;;;;;;;;;;5065522;28;20057;-68
2023/01/21 07:15:00;;;;;;;56.80;22.42;;;;;;;;;;5066896;28;20063;-69
2023/01/21 07:17:26;;;;;;;50.20;21.83;;;;;;;;;;5066203;28;20477;-69
2023/01/21 07:19:53;;;;;;;55.28;21.58;;;;;;;;;;5067089;28;20059;-68
2023/01/21 07:22:19;;;;;;;48.50;21.85;;;;;;;;;;5065287;28;20145;-69
2023/01/21 07:24:46;;;;;;;50.47;20.20;;;;;;;;;;5074214;28;20586;-68
2023/01/21 07:27:12;;;;;;;55.85;23.15;;;;;;;;;;5071622;28;20046;-67
2023/01/21 07:29:38;;;;;;;53.65;22.73;;;;;;;;;;5065482;28;20059;-69
2023/01/21 07:32:05;;;;;;;56.97;21.48;;;;;;;;;;5058658;28;20103;-69
2023/01/21 07:34:31;;;;;;;49.10;20.00;;;;;;;;;;5062551;28;20041;-68
2023/01/21 07:36:57;;;;;;;63.80;21.80;;;;;;;;;;5066588;28;20504;-68
2023/01/21 07:39:24;;;;;;;56.25;21.40;;;;;;;;;;5080125;28;20427;-69
2023/01/21 07:41:50;;;;;;;53.70;21.45;;;;;;;;;;5078498;28;20052;-69
2023/01/21 07:44:16;;;;;;;53.03;21.05;;;;;;;;;;5076248;28;20112;-66
2023/01/21 07:46:43;;;;;;;53.95;20.73;;;;;;;;;;5070171;28;20041;-69
2023/01/21 07:49:11;;;;;;;61.58;20.45;;;;;;;;;;5068327;28;20053;-69
2023/01/21 07:51:38;;;;;;;60.25;20.13;;;;;;;;;;5068816;28;20140;-69
2023/01/21 07:54:04;;;;;;;46.58;20.73;;;;;;;;;;5069719;28;20053;-68
2023/01/21 07:56:30;;;;;;;58.20;21.20;;;;;;;;;;5068375;28;20053;-69
2023/01/21 07:58:57;;;;;;;51.13;20.25;;;;;;;;;;5078663;28;20048;-70
2023/01/21 08:01:27;;;;;;;47.17;19.33;;;;;;;;;;5070213;28;20053;-69
2023/01/21 08:03:53;;;;;;;53.83;21.33;;;;;;;;;;5069706;28;20134;-70
2023/01/21 08:06:19;;;;;;;52.88;22.90;;;;;;;;;;5072234;28;20053;-70
2023/01/21 08:08:46;;;;;;;71.35;23.52;;;;;;;;;;5073415;28;20425;-67
2023/01/21 08:11:12;;;;;;;63.90;20.85;;;;;;;;;;5082070;28;20049;-67
2023/01/21 08:13:38;;;;;;;59.65;22.40;;;;;;;;;;5076755;28;20047;-69
2023/01/21 08:16:05;;;;;;;55.97;22.25;;;;;;;;;;5083565;28;20048;-69
2023/01/21 08:18:31;;;;;;;57.15;23.67;;;;;;;;;;5067423;28;20084;-69
2023/01/21 08:20:58;;;;;;;52.88;21.23;;;;;;;;;;5062966;28;20053;-69
2023/01/21 08:23:25;;;;;;;64.35;24.20;;;;;;;;;;5060167;28;20083;-69
2023/01/21 08:25:52;;;;;;;60.47;21.92;;;;;;;;;;5067580;28;20049;-68
2023/01/21 08:28:18;;;;;;;61.83;24.25;;;;;;;;;;5067091;28;20061;-69
2023/01/21 08:30:44;;;;;;;56.55;23.35;;;;;;;;;;5066040;28;20496;-69
2023/01/21 08:33:11;;;;;;;61.85;23.65;;;;;;;;;;5078952;28;20090;-68
2023/01/21 08:35:37;;;;;;;64.18;24.63;;;;;;;;;;5085525;28;20060;-69
2023/01/21 08:38:04;;;;;;;58.70;23.60;;;;;;;;;;5069532;28;20064;-69
2023/01/21 08:40:30;;;;;;;66.68;25.48;;;;;;;;;;5069208;28;20087;-69
2023/01/21 08:43:01;;;;;;;60.00;23.52;;;;;;;;;;5073624;28;20048;-69
2023/01/21 08:45:27;;;;;;;65.97;24.90;;;;;;;;;;5068599;28;20049;-67
2023/01/21 08:47:54;;;;;;;60.67;23.38;;;;;;;;;;5075584;28;20049;-69
2023/01/21 08:50:20;;;;;;;70.13;25.10;;;;;;;;;;5072512;28;20538;-69
2023/01/21 08:52:50;;;;;;;65.13;23.30;;;;;;;;;;5070611;28;20195;-69
2023/01/21 08:55:17;;;;;;;63.05;23.92;;;;;;;;;;5087278;28;20136;-67
2023/01/21 08:57:43;;;;;;;62.08;22.63;;;;;;;;;;5073713;28;20060;-69
2023/01/21 09:00:10;;;;;;;65.85;22.92;;;;;;;;;;5078115;28;20140;-70
2023/01/21 09:02:37;;;;;;;67.95;24.30;;;;;;;;;;5066864;28;20045;-69
2023/01/21 09:05:03;;;;;;;68.15;23.48;;;;;;;;;;5071305;28;20514;-70
2023/01/21 09:07:29;;;;;;;69.38;25.48;;;;;;;;;;5068288;28;20500;-69
2023/01/21 09:09:56;;;;;;;58.33;23.20;;;;;;;;;;5068236;28;20053;-68
2023/01/21 09:12:22;;;;;;;68.70;24.38;;;;;;;;;;5066507;28;20053;-70
2023/01/21 09:14:48;;;;;;;73.00;25.60;;;;;;;;;;5067393;28;20144;-69
2023/01/21 09:17:15;;;;;;;65.13;23.65;;;;;;;;;;5068314;28;20053;-68
2023/01/21 09:19:41;;;;;;;62.45;23.58;;;;;;;;;;5066053;28;20053;-69
2023/01/21 09:22:08;;;;;;;71.80;26.77;;;;;;;;;;5067935;28;20524;-69
2023/01/21 09:24:34;;;;;;;65.80;25.83;;;;;;;;;;5064760;28;20136;-68
2023/01/21 09:27:00;;;;;;;64.60;24.35;;;;;;;;;;5067205;28;20052;-69
2023/01/21 09:29:27;;;;;;;73.78;24.90;;;;;;;;;;5067866;28;20132;-69
2023/01/21 09:31:53;;;;;;;64.15;23.40;;;;;;;;;;5065654;28;20037;-67
2023/01/21 09:34:19;;;;;;;72.03;24.95;;;;;;;;;;5067780;28;20375;-69
2023/01/21 09:36:46;;;;;;;62.05;25.05;;;;;;;;;;5067450;28;20063;-68
2023/01/21 09:39:12;;;;;;;67.75;24.05;;;;;;;;;;5067864;28;20140;-66
2023/01/21 09:41:41;;;;;;;62.30;24.90;;;;;;;;;;5068153;28;20055;-70
2023/01/21 09:44:10;;;;;;;62.53;24.13;;;;;;;;;;5082528;28;20064;-67
2023/01/21 09:46:59;;;;;;;66.88;23.88;;;;;;;;;;5067202;28;20060;-69
2023/01/21 09:49:37;;;;;;;66.85;24.35;;;;;;;;;;5068631;28;20063;-69
2023/01/21 09:52:24;;;;;;;74.80;25.20;;;;;;;;;;5067103;28;20054;-69
2023/01/21 09:54:50;;;;;;;57.42;22.77;;;;;;;;;;5066949;28;20087;-69
2023/01/21 09:57:31;;;;;;;68.18;24.00;;;;;;;;;;5066948;28;20061;-69
2023/01/21 10:00:06;;;;;;;67.78;23.83;;;;;;;;;;5067100;28;20569;-68
2023/01/21 10:02:33;;;;;;;66.75;24.65;;;;;;;;;;5066195;28;20049;-69
2023/01/21 10:05:17;;;;;;;65.95;25.67;;;;;;;;;;5067709;28;20049;-68
2023/01/21 10:07:50;;;;;;;66.28;23.30;;;;;;;;;;5067225;28;20573;-67
2023/01/21 10:10:20;;;;;;;66.75;24.90;;;;;;;;;;5068215;28;20053;-65
2023/01/21 10:13:01;;;;;;;69.78;25.23;;;;;;;;;;5066660;28;20148;-66
2023/01/21 10:15:42;;;;;;;61.88;22.15;;;;;;;;;;5067814;28;20509;-68
2023/01/21 10:18:14;;;;;;;53.72;21.80;;;;;;;;;;5066240;28;20055;-69
2023/01/21 10:20:52;;;;;;;57.03;21.77;;;;;;;;;;5067019;28;20076;-67
2023/01/21 10:23:18;;;;;;;61.42;22.95;;;;;;;;;;5066247;28;20041;-69
2023/01/21 10:25:47;;;;;;;59.05;21.30;;;;;;;;;;5067626;28;20143;-68
2023/01/21 10:28:17;;;;;;;62.65;21.83;;;;;;;;;;5067432;28;20045;-67
2023/01/21 10:30:47;;;;;;;57.22;21.95;;;;;;;;;;5066421;28;20048;-69
2023/01/21 10:33:22;;;;;;;62.33;23.20;;;;;;;;;;5066633;28;20053;-68
2023/01/21 10:35:54;;;;;;;53.58;21.50;;;;;;;;;;5066090;28;20056;-69
2023/01/21 10:38:35;;;;;;;52.30;19.80;;;;;;;;;;5065757;28;20053;-69
2023/01/21 10:41:18;;;;;;;58.70;21.67;;;;;;;;;;5075818;28;20617;-69
2023/01/21 10:43:50;;;;;;;61.08;22.05;;;;;;;;;;5082029;28;20052;-68
2023/01/21 10:46:23;;;;;;;53.33;21.48;;;;;;;;;;5066556;28;20049;-66
2023/01/21 10:48:53;;;;;;;59.15;20.95;;;;;;;;;;5082250;28;20111;-68
2023/01/21 10:51:30;;;;;;;55.08;20.52;;;;;;;;;;5086012;28;20515;-68
2023/01/21 10:54:15;;;;;;;61.78;22.15;;;;;;;;;;5067367;28;20503;-68
2023/01/21 10:56:54;;;;;;;50.75;19.08;;;;;;;;;;5062473;28;20072;-69
2023/01/21 10:59:26;;;;;;;53.20;20.95;;;;;;;;;;5074671;28;20510;-68
2023/01/21 11:02:01;;;;;;;52.78;21.10;;;;;;;;;;5087806;28;20131;-67
2023/01/21 11:04:28;;;;;;;55.88;20.60;;;;;;;;;;5070305;28;20052;-67
2023/01/21 11:07:04;;;;;;;55.50;21.63;;;;;;;;;;5067541;28;20516;-69
2023/01/21 11:09:33;;;;;;;55.58;21.90;;;;;;;;;;5057735;28;20140;-68
2023/01/21 11:11:59;;;;;;;59.58;19.98;;;;;;;;;;5066227;28;20110;-69
2023/01/21 11:14:26;;;;;;;64.55;23.48;;;;;;;;;;5069221;28;20143;-68
2023/01/21 11:16:53;;;;;;;62.33;21.48;;;;;;;;;;5069329;28;20049;-69
2023/01/21 11:19:23;;;;;;;51.80;19.58;;;;;;;;;;5082710;28;20053;-68
2023/01/21 11:21:56;;;;;;;60.67;21.45;;;;;;;;;;5089533;28;20052;-67
2023/01/21 11:24:23;;;;;;;53.75;18.92;;;;;;;;;;5067160;28;20140;-68
2023/01/21 11:26:51;;;;;;;50.60;18.58;;;;;;;;;;5070619;28;20053;-69
2023/01/21 11:29:18;;;;;;;52.78;20.40;;;;;;;;;;5070354;28;20135;-66
2023/01/21 11:32:08;;;;;;;58.45;20.73;;;;;;;;;;5069345;28;20052;-69
2023/01/21 11:34:35;;;;;;;52.63;17.40;;;;;;;;;;5062625;28;20064;-68
2023/01/21 11:37:09;;;;;;;54.28;20.33;;;;;;;;;;5070432;28;20041;-68
2023/01/21 11:39:37;;;;;;;48.05;17.88;;;;;;;;;;5068007;28;20049;-68
2023/01/21 11:42:06;;;;;;;48.55;18.92;;;;;;;;;;5067911;28;20045;-69
2023/01/21 11:44:32;;;;;;;52.08;20.35;;;;;;;;;;5069799;28;20052;-70
2023/01/21 11:46:59;;;;;;;50.55;19.42;;;;;;;;;;5069592;28;20049;-69
2023/01/21 11:49:27;;;;;;;49.00;18.42;;;;;;;;;;5070117;28;20206;-69
2023/01/21 11:52:25;;;;;;;47.35;19.30;;;;;;;;;;5067881;28;21037;-70
2023/01/21 11:54:51;;;;;;;47.58;18.50;;;;;;;;;;5054137;28;20057;-69
2023/01/21 11:57:20;;;;;;;43.40;17.98;;;;;;;;;;5068759;28;20053;-68
2023/01/21 11:59:47;;;;;;;50.35;18.30;;;;;;;;;;5083074;28;20061;-69
2023/01/21 12:02:21;;;;;;;44.55;17.95;;;;;;;;;;5063500;28;20504;-68
2023/01/21 12:04:49;;;;;;;53.28;19.15;;;;;;;;;;5055508;28;20979;-67
2023/01/21 12:07:20;;;;;;;54.08;21.00;;;;;;;;;;5068210;28;20053;-68
2023/01/21 12:09:51;;;;;;;48.58;19.60;;;;;;;;;;5065148;28;20057;-69
2023/01/21 12:12:29;;;;;;;48.97;18.80;;;;;;;;;;5069032;28;20049;-67
2023/01/21 12:14:57;;;;;;;49.67;19.58;;;;;;;;;;5070607;28;20060;-68
2023/01/21 12:17:42;;;;;;;45.17;18.42;;;;;;;;;;5068075;28;20045;-69
2023/01/21 12:20:18;;;;;;;42.15;16.08;;;;;;;;;;5068573;28;20057;-70
2023/01/21 12:22:51;;;;;;;45.55;16.75;;;;;;;;;;5075931;28;20132;-70
2023/01/21 12:25:20;;;;;;;52.13;19.73;;;;;;;;;;5090144;28;20211;-68
2023/01/21 12:27:49;;;;;;;50.95;18.48;;;;;;;;;;5072562;28;20525;-71
2023/01/21 12:30:23;;;;;;;48.63;19.52;;;;;;;;;;5066528;28;20462;-70
2023/01/21 12:32:55;;;;;;;47.47;18.58;;;;;;;;;;5064126;28;20056;-69
2023/01/21 12:35:21;;;;;;;48.78;17.80;;;;;;;;;;5068562;28;20523;-70
2023/01/21 12:37:48;;;;;;;48.88;18.63;;;;;;;;;;5077411;28;20053;-69
2023/01/21 12:40:26;;;;;;;42.97;18.15;;;;;;;;;;5068970;28;20060;-68
2023/01/21 12:42:54;;;;;;;44.33;18.92;;;;;;;;;;5066454;28;20521;-70
2023/01/21 12:45:24;;;;;;;47.33;18.00;;;;;;;;;;5069012;28;20079;-68
2023/01/21 12:47:56;;;;;;;46.88;17.15;;;;;;;;;;5069463;28;20048;-70
2023/01/21 12:50:29;;;;;;;45.03;16.85;;;;;;;;;;5067030;28;20549;-70
2023/01/21 12:53:08;;;;;;;51.85;18.60;;;;;;;;;;5069096;28;20075;-70
2023/01/21 12:55:37;;;;;;;48.25;18.27;;;;;;;;;;5068656;28;20057;-70
2023/01/21 12:58:14;;;;;;;51.42;19.00;;;;;;;;;;5066689;28;20064;-70
2023/01/21 13:00:43;;;;;;;43.00;18.15;;;;;;;;;;5068794;28;20059;-69
2023/01/21 13:03:10;;;;;;;54.38;20.25;;;;;;;;;;5066670;28;20057;-70
2023/01/21 13:05:39;;;;;;;43.85;19.50;;;;;;;;;;5067431;28;20137;-67
2023/01/21 13:08:19;;;;;;;48.25;16.73;;;;;;;;;;5065118;28;20506;-76
2023/01/21 13:10:58;;;;;;;45.95;17.35;;;;;;;;;;5084011;28;20511;-71
2023/01/21 13:13:24;;;;;;;40.00;16.83;;;;;;;;;;5069267;28;20442;-70
2023/01/21 13:15:52;;;;;;;48.83;18.10;;;;;;;;;;5066784;28;20057;-70
2023/01/21 13:18:27;;;;;;;50.95;16.15;;;;;;;;;;5062803;28;20053;-69
2023/01/21 13:20:57;;;;;;;41.35;16.58;;;;;;;;;;5060979;28;20059;-70
2023/01/21 13:23:36;;;;;;;46.03;17.98;;;;;;;;;;5048860;28;20057;-70
2023/01/21 13:26:08;;;;;;;42.17;14.77;;;;;;;;;;5063733;28;20182;-70
2023/01/21 13:28:41;;;;;;;40.63;15.70;;;;;;;;;;5069363;28;20152;-69
2023/01/21 13:31:12;;;;;;;46.65;18.08;;;;;;;;;;5060865;28;20053;-68
2023/01/21 13:33:53;;;;;;;49.45;16.63;;;;;;;;;;5066758;28;20053;-70
2023/01/21 13:36:25;;;;;;;41.05;16.40;;;;;;;;;;5067817;28;20053;-70
2023/01/21 13:39:10;;;;;;;44.22;16.10;;;;;;;;;;5063633;28;20059;-70
2023/01/21 13:41:45;;;;;;;44.22;14.90;;;;;;;;;;5069071;28;20491;-69
2023/01/21 13:44:20;;;;;;;41.55;15.57;;;;;;;;;;5063811;28;20487;-69
2023/01/21 13:46:53;;;;;;;47.13;17.38;;;;;;;;;;5061075;28;20052;-69
2023/01/21 13:49:35;;;;;;;41.65;16.92;;;;;;;;;;5061199;28;20053;-69
2023/01/21 13:52:08;;;;;;;46.13;16.58;;;;;;;;;;5063209;28;20111;-67
2023/01/21 13:54:40;;;;;;;47.88;17.30;;;;;;;;;;5068382;28;20053;-68
2023/01/21 13:57:20;;;;;;;45.35;17.23;;;;;;;;;;5086623;28;20056;-67
2023/01/21 13:59:50;;;;;;;42.95;15.65;;;;;;;;;;5065711;28;20045;-70
2023/01/21 14:02:21;;;;;;;37.55;15.52;;;;;;;;;;5068905;28;20056;-70
2023/01/21 14:04:56;;;;;;;36.20;15.60;;;;;;;;;;5064405;28;20064;-66
2023/01/21 14:07:43;;;;;;;40.30;14.57;;;;;;;;;;5078148;28;20469;-69
2023/01/21 14:10:12;;;;;;;40.63;16.35;;;;;;;;;;5063287;28;20059;-75
2023/01/21 14:12:44;;;;;;;43.90;15.77;;;;;;;;;;5065658;28;20053;-70
2023/01/21 14:15:29;;;;;;;38.05;15.73;;;;;;;;;;5058522;28;20056;-71
2023/01/21 14:18:02;;;;;;;35.92;15.55;;;;;;;;;;5064182;28;20060;-71
2023/01/21 14:20:36;;;;;;;40.70;15.05;;;;;;;;;;5063784;28;20047;-71
2023/01/21 14:23:10;;;;;;;32.90;14.25;;;;;;;;;;5067493;28;20064;-71
2023/01/21 14:25:36;;;;;;;32.33;13.32;;;;;;;;;;5065577;28;20566;-70
2023/01/21 14:28:08;;;;;;;31.63;14.18;;;;;;;;;;5058053;28;20056;-69
2023/01/21 14:31:10;;;;;;;36.30;14.90;;;;;;;;;;5064462;28;20513;-68
2023/01/21 14:33:43;;;;;;;38.60;15.98;;;;;;;;;;5043498;28;20075;-70